createdAt,value
2022-08-29T00:02:58.192Z,85.67
2022-08-29T00:13:05.270Z,85.74
2022-08-29T00:23:11.535Z,86.03
2022-08-29T00:33:17.382Z,86.28
2022-08-29T00:43:26.274Z,86.70
2022-08-29T00:53:38.207Z,87.29
2022-08-29T01:03:44.271Z,87.28
2022-08-29T01:13:52.255Z,87.66
2022-08-29T01:24:05.601Z,87.91
2022-08-29T01:34:12.812Z,87.90
2022-08-29T01:44:20.552Z,88.09
2022-08-29T01:54:26.188Z,88.20
2022-08-29T02:04:32.402Z,88.23
2022-08-29T02:14:38.814Z,88.74
2022-08-29T02:24:45.396Z,88.94
2022-08-29T02:34:51.176Z,89.15
2022-08-29T02:44:56.824Z,89.44
2022-08-29T02:55:02.786Z,89.69
2022-08-29T03:05:10.208Z,90.05
2022-08-29T03:15:16.514Z,90.11
2022-08-29T03:25:23.016Z,89.87
2022-08-29T03:35:28.926Z,89.85
2022-08-29T03:45:35.060Z,89.70
2022-08-29T03:55:41.140Z,89.56
2022-08-29T04:05:46.926Z,89.28
2022-08-29T04:15:57.050Z,88.98
2022-08-29T04:26:27.159Z,88.55
2022-08-29T04:36:29.365Z,88.29
2022-08-29T04:46:35.668Z,88.61
2022-08-29T04:56:44.335Z,88.60
2022-08-29T05:06:53.470Z,88.08
2022-08-29T05:16:59.209Z,87.75
2022-08-29T05:27:10.926Z,87.34
2022-08-29T05:37:19.390Z,78.75
2022-08-29T05:47:25.550Z,67.01
2022-08-29T05:57:31.254Z,55.74
2022-08-29T06:07:37.113Z,50.26
2022-08-29T06:17:42.980Z,43.74
2022-08-29T06:27:48.804Z,40.72
2022-08-29T06:37:54.579Z,38.06
2022-08-29T06:48:00.276Z,37.89
2022-08-29T06:58:06.301Z,34.55
2022-08-29T07:08:12.011Z,31.73
2022-08-29T07:18:17.756Z,30.13
2022-08-29T07:28:23.406Z,28.28
2022-08-29T07:38:30.956Z,25.83
2022-08-29T07:48:36.810Z,25.55
2022-08-29T07:58:43.588Z,24.30
2022-08-29T08:08:49.792Z,24.63
2022-08-29T08:18:56.519Z,23.41
2022-08-29T08:29:02.216Z,22.64
2022-08-29T08:39:08.137Z,25.15
2022-08-29T08:49:20.194Z,30.35
2022-08-29T08:59:34.747Z,34.04
2022-08-29T09:09:56.984Z,35.66
2022-08-29T09:20:04.025Z,37.74
2022-08-29T09:30:10.945Z,38.31
2022-08-29T09:40:19.344Z,38.58
2022-08-29T09:50:28.554Z,39.88
2022-08-29T10:00:38.087Z,41.40
2022-08-29T10:10:54.684Z,42.12
2022-08-29T10:21:20.429Z,42.24
2022-08-29T10:31:34.429Z,42.27
2022-08-29T10:41:51.043Z,42.37
2022-08-29T10:52:11.551Z,42.29
2022-08-29T11:02:28.239Z,42.26
2022-08-29T11:12:45.391Z,42.41
2022-08-29T11:22:55.621Z,42.56
2022-08-29T11:33:15.073Z,42.83
2022-08-29T11:43:26.032Z,42.42
2022-08-29T11:53:37.634Z,42.50
2022-08-29T12:03:47.817Z,42.09
2022-08-29T12:14:06.282Z,42.33
2022-08-29T12:24:31.575Z,42.94
2022-08-29T12:34:50.928Z,43.23
2022-08-29T12:45:05.215Z,43.38
2022-08-29T12:55:28.770Z,43.22
2022-08-29T13:05:38.339Z,42.62
2022-08-29T13:15:45.092Z,42.77
2022-08-29T13:25:54.496Z,42.66
2022-08-29T13:36:00.183Z,43.54
2022-08-29T13:46:15.479Z,43.61
2022-08-29T13:56:32.274Z,43.90
2022-08-29T14:06:38.552Z,44.06
2022-08-29T14:16:44.338Z,44.61
2022-08-29T14:26:54.090Z,45.50
2022-08-29T14:37:07.698Z,45.96
2022-08-29T14:47:13.711Z,45.91
2022-08-29T14:57:19.668Z,45.21
2022-08-29T15:07:25.570Z,45.20
2022-08-29T15:17:31.322Z,45.98
2022-08-29T15:27:37.280Z,46.09
2022-08-29T15:37:43.815Z,45.95
2022-08-29T15:47:49.627Z,45.78
2022-08-29T15:57:55.417Z,45.72
2022-08-29T16:08:01.405Z,46.16
2022-08-29T16:18:07.948Z,47.06
2022-08-29T16:28:13.637Z,47.67
2022-08-29T16:38:19.664Z,48.52
2022-08-29T16:48:25.707Z,49.71
2022-08-29T16:58:50.962Z,51.16
2022-08-29T17:08:55.982Z,52.38
2022-08-29T17:19:02.132Z,53.63
2022-08-29T17:29:09.575Z,54.89
2022-08-29T17:39:15.744Z,55.85
2022-08-29T17:49:21.834Z,56.98
2022-08-29T17:59:33.800Z,57.65
2022-08-29T18:09:39.695Z,58.44
2022-08-29T18:19:45.606Z,59.48
2022-08-29T18:29:51.776Z,60.46
2022-08-29T18:39:57.640Z,61.28
2022-08-29T18:50:25.147Z,62.39
2022-08-29T19:00:31.362Z,63.53
2022-08-29T19:10:37.591Z,64.50
2022-08-29T19:21:01.609Z,65.43
2022-08-29T19:31:08.129Z,66.08
2022-08-29T19:41:15.536Z,67.04
2022-08-29T19:51:24.451Z,67.89
2022-08-29T20:01:31.569Z,68.61
2022-08-29T20:11:43.765Z,69.42
2022-08-29T20:21:50.671Z,69.96
2022-08-29T20:31:56.524Z,70.55
2022-08-29T20:42:02.921Z,71.18
2022-08-29T20:52:09.008Z,71.78
2022-08-29T21:02:16.540Z,72.46
2022-08-29T21:12:27.452Z,72.95
2022-08-29T21:22:33.779Z,73.41
2022-08-29T21:32:39.756Z,73.77
2022-08-29T21:42:45.707Z,74.19
2022-08-29T21:52:51.683Z,74.46
2022-08-29T22:02:57.527Z,74.87
2022-08-29T22:13:06.298Z,75.32
2022-08-29T22:23:12.859Z,75.61
2022-08-29T22:33:21.124Z,76.18
2022-08-29T22:43:28.574Z,76.64
2022-08-29T22:53:34.960Z,76.84
2022-08-29T23:03:40.899Z,77.20
2022-08-29T23:13:47.682Z,77.67
2022-08-29T23:23:56.060Z,78.21
2022-08-29T23:34:01.739Z,78.86
2022-08-29T23:44:08.039Z,78.82
2022-08-29T23:54:13.737Z,79.09
